Québec, Quebec

21:08 EDT le 31 Mars 2015 (GMT -0400)
Ancienne-Lorette | | Change Station
CLOSE
Current Station
Stations météorologiques personnelles
Location: LAncienne-Lorette, QUéBEC
Altitude: 187 ft
Stations météo à proximité

Alt. 187 ft 46.80 °N, 71.37 °W | Updated 3 minutes ago

Clear
Ciel dégagé
26.9 ° F
Paraît 22 ° F
N
4.0
Vent Variable Vent de ONO
Gusts 4.0 mph

Demain il est prévu de faire pratiquement la même température qu’aujourd’hui.

Aujourd'hui
Haut(e) -- | Bas -- ° F
--% Risque de précip.
Hier
Haut(e) -- | Bas -- ° F
Precip. -- pouce
6:27 AM 7:12 PM
Lune gibbeuse croissante, 90% visible
Pression 29.83 pouce
Visibilité 15.0 Miles terrestres
Nuages Ciel dégagé
Refroidissement éolien 22 ° F
Point de rosée 12 ° F
Humidité 52%
Précipitations 0.00 pouce
Profondeur de la couche neigeuse Non disponible.
UV 0 sur 12
Pollen Non disponible.
Qualité de l'air Non disponible.
Flu Activity Non disponible.
METAR CYQB 010100Z 27009KT 15SM SKC M03/M13 A2982 RMK SLP101

More Conditions Fewer Conditions

Pression 29.83 pouce
Visibilité 15.0 Miles terrestres
Nuages Ciel dégagé
Refroidissement éolien 22 ° F
Point de rosée 12 ° F
Humidité 52%
Précipitations 0.00 pouce
Profondeur de la couche neigeuse Non disponible.
UV 0 sur 12
Pollen Non disponible.
Qualité de l'air Non disponible.
Flu Activity Non disponible.
METAR CYQB 010100Z 27009KT 15SM SKC M03/M13 A2982 RMK SLP101

More Conditions Fewer Conditions

10-Day Weather Forecast

Almanac

Astronomie

Mar. 31, 2015 Lever Coucher
Temps réel
Crépuscule civil
Crépuscule nautique
Crépuscule astronomique
Lune
Durée de lumière visible
Longueur du jour
Tomorrow will be .
, % of the Moon is Illuminated

Extrêmes aujourd'hui

Country Highs Country Lows

Community

WunderPhotos

Upload Photos

1,809,893 Photos téléchargées !

WunderBlogs® & News

Nearby

Qualité de l'air

  Qualité de l'air Indice de la qualité de l'air Polluant
Not available.

Épaisseur de neige

Station Depth Altitude

Activité sismique

Ville Distance Mag. Time & Date
Minimum magnitude displayed is 2.5.

Températures des eaux côtières

Lieu Température

Stations

Stations météo à proximité

Emplacement de la station Température Refroidissement éolien Point de rosée Humidité Vent Precip. Alt. Mise à jour Type